Time;durP1;ratioP1;P1;durP2;ratioP2;P2;SDS_P1;SDS_P2;PMS_P1;PMS_P2;Temp;Humidity;BMP_temperature;BMP_pressure;BME280_temperature;BME280_humidity;BME280_pressure;Samples;Min_cycle;Max_cycle;Signal;HPM_P1;HPM_P2
2022/11/09 00:00:48;;;;;;;32.70;20.05;;;17.50;87.50;;;17.89;50.58;98855.91;5020885;28;20051;-77
2022/11/09 00:03:14;;;;;;;38.70;22.48;;;17.50;87.50;;;17.87;50.55;98853.47;5051728;28;20044;-77
2022/11/09 00:05:40;;;;;;;31.48;22.15;;;17.50;87.30;;;17.85;50.95;98852.16;5027070;28;20040;-77
2022/11/09 00:08:08;;;;;;;33.33;22.02;;;17.50;87.50;;;17.78;51.11;98853.44;5015547;28;20455;-77
2022/11/09 00:10:34;;;;;;;33.25;21.60;;;17.40;87.80;;;17.84;51.22;98848.63;5005891;28;20045;-77
2022/11/09 00:13:00;;;;;;;32.70;20.83;;;17.40;87.80;;;17.84;50.61;98850.56;5067183;28;20041;-77
2022/11/09 00:15:26;;;;;;;35.78;23.20;;;17.50;87.50;;;17.83;50.75;98852.47;5020442;28;20078;-77
2022/11/09 00:17:53;;;;;;;40.00;25.10;;;17.50;87.30;;;17.88;50.69;98849.56;5022565;28;20353;-77
2022/11/09 00:20:19;;;;;;;36.13;24.48;;;17.50;87.10;;;17.86;50.45;98851.03;5036861;28;20045;-77
2022/11/09 00:22:47;;;;;;;37.13;22.92;;;17.50;86.90;;;17.79;50.82;98857.81;5064342;28;20436;-77
2022/11/09 00:25:14;;;;;;;43.17;24.23;;;17.50;87.50;;;17.77;50.92;98851.00;5007034;28;20068;-77
2022/11/09 00:27:40;;;;;;;38.47;21.38;;;17.40;87.40;;;17.81;50.49;98857.50;5035860;28;20044;-77
2022/11/09 00:30:09;;;;;;;38.28;23.13;;;17.40;87.40;;;17.87;50.39;98850.72;5018666;28;20482;-77
2022/11/09 00:32:35;;;;;;;29.38;21.92;;;17.50;87.50;;;17.80;50.51;98855.84;5008686;28;20094;-77
2022/11/09 00:35:01;;;;;;;39.40;23.60;;;17.50;87.20;;;17.84;50.26;98856.84;5032401;28;20116;-77
2022/11/09 00:37:31;;;;;;;34.45;23.15;;;17.50;86.80;;;17.80;50.59;98858.59;5037826;28;20044;-77
2022/11/09 00:39:57;;;;;;;34.00;22.27;;;17.50;87.10;;;17.74;50.97;98854.38;5040346;28;20032;-77
2022/11/09 00:42:23;;;;;;;37.67;23.20;;;17.40;87.40;;;17.81;50.70;98856.66;5023613;28;20055;-77
2022/11/09 00:44:49;;;;;;;36.35;23.08;;;17.40;87.40;;;17.82;50.67;98858.28;5021913;28;20041;-77
2022/11/09 00:47:15;;;;;;;34.53;22.10;;;17.40;87.40;;;17.79;50.43;98866.03;5023061;28;20624;-77
2022/11/09 00:49:41;;;;;;;38.60;22.70;;;17.40;87.00;;;17.87;50.18;98864.44;5040973;28;20051;-77
2022/11/09 00:52:08;;;;;;;41.53;23.52;;;17.50;86.90;;;17.84;50.36;98867.03;5022460;28;20570;-77
2022/11/09 00:54:35;;;;;;;43.90;23.77;;;17.50;86.70;;;17.72;50.75;98857.44;5042431;28;20067;-77
2022/11/09 00:57:02;;;;;;;36.15;23.95;;;17.40;87.20;;;17.73;50.91;98863.72;5030246;28;20045;-77
2022/11/09 00:59:27;;;;;;;36.30;23.38;;;17.40;87.40;;;17.73;50.76;98867.28;5050934;28;20075;-77
2022/11/09 01:01:54;;;;;;;39.78;22.38;;;17.30;87.30;;;17.76;50.55;98861.16;5025782;28;20041;-77
2022/11/09 01:04:20;;;;;;;41.22;24.08;;;17.40;87.30;;;17.79;50.42;98855.06;5042305;28;20047;-77
2022/11/09 01:06:46;;;;;;;33.00;21.77;;;17.40;86.90;;;17.79;50.17;98859.72;5007373;28;20059;-77
2022/11/09 01:09:12;;;;;;;40.83;23.70;;;17.40;86.80;;;17.76;50.04;98855.69;5036979;28;20140;-77
2022/11/09 01:11:38;;;;;;;36.83;24.17;;;17.40;86.70;;;17.75;50.63;98854.03;5042161;28;20495;-77
2022/11/09 01:14:04;;;;;;;39.13;23.55;;;17.40;87.20;;;17.70;51.10;98850.66;5011244;28;20045;-77
2022/11/09 01:16:30;;;;;;;33.92;22.80;;;17.30;87.30;;;17.73;50.36;98847.25;5039116;28;20041;-77
2022/11/09 01:18:57;;;;;;;35.15;22.70;;;17.30;87.20;;;17.72;50.21;98846.44;5039621;28;20089;-77
2022/11/09 01:21:24;;;;;;;38.28;23.02;;;17.40;86.90;;;17.78;50.07;98841.63;5026324;28;20040;-77
2022/11/09 01:23:50;;;;;;;41.38;24.40;;;17.40;86.70;;;17.79;50.16;98838.59;5019867;28;20042;-77
2022/11/09 01:26:17;;;;;;;39.88;25.52;;;17.50;86.50;;;17.73;50.17;98842.59;5036188;28;20094;-77
2022/11/09 01:28:43;;;;;;;35.83;21.33;;;17.40;86.60;;;17.71;50.50;98841.31;5046558;28;20040;-77
2022/11/09 01:31:13;;;;;;;35.13;22.67;;;17.40;87.30;;;17.57;50.98;98842.22;5052326;28;20036;-77
2022/11/09 01:33:39;;;;;;;39.88;23.58;;;17.20;87.20;;;17.68;50.45;98841.91;5039015;28;20033;-77
2022/11/09 01:36:08;;;;;;;34.28;22.25;;;17.30;87.10;;;17.73;50.25;98834.38;5016894;28;20032;-76
2022/11/09 01:38:37;;;;;;;33.05;23.15;;;17.30;86.80;;;17.71;50.03;98836.63;5014065;28;20052;-77
2022/11/09 01:41:05;;;;;;;37.83;22.38;;;17.30;86.60;;;17.72;50.13;98837.41;5037174;28;20063;-77
2022/11/09 01:43:30;;;;;;;40.33;25.00;;;17.40;86.50;;;17.70;50.06;98832.25;5028124;28;20045;-77
2022/11/09 01:46:23;;;;;;;41.30;24.92;;;17.40;86.90;;;17.64;50.61;98839.03;5041705;28;20036;-77
2022/11/09 01:48:57;;;;;;;41.92;24.70;;;17.30;87.20;;;17.62;50.48;98829.50;5037443;28;20068;-77
2022/11/09 01:51:30;;;;;;;36.13;23.80;;;17.20;87.00;;;17.67;49.53;98830.16;5035992;28;20080;-77
2022/11/09 01:54:04;;;;;;;44.63;25.33;;;17.30;86.60;;;17.67;50.03;98837.56;5058861;28;20037;-77
2022/11/09 01:56:30;;;;;;;36.90;22.33;;;17.30;86.50;;;17.72;49.73;98837.41;5023523;28;20070;-77
2022/11/09 01:59:00;;;;;;;39.83;22.95;;;17.30;86.30;;;17.71;50.02;98835.81;5022351;28;20147;-77
2022/11/09 02:01:26;;;;;;;38.17;23.48;;;17.30;86.40;;;17.67;50.18;98830.16;5039845;28;20058;-77
2022/11/09 02:04:06;;;;;;;37.35;23.33;;;17.30;86.80;;;17.67;49.97;98818.38;5035348;28;20036;-77
2022/11/09 02:06:32;;;;;;;39.15;24.45;;;17.20;87.00;;;17.72;50.07;98826.44;5024764;28;20037;-77
2022/11/09 02:09:42;;;;;;;35.72;24.77;;;17.30;86.70;;;17.69;49.94;98827.09;5046964;28;20094;-77
2022/11/09 02:12:08;;;;;;;41.33;25.13;;;17.30;86.40;;;17.69;49.76;98821.63;5010794;28;20056;-77
2022/11/09 02:14:34;;;;;;;34.67;22.77;;;17.30;86.10;;;17.72;49.85;98821.75;5041766;28;20055;-77
2022/11/09 02:17:00;;;;;;;38.80;23.98;;;17.30;86.30;;;17.73;49.94;98822.56;5065486;28;20040;-77
2022/11/09 02:19:26;;;;;;;35.90;22.88;;;17.30;86.60;;;17.77;50.08;98818.88;5023874;28;20036;-77
2022/11/09 02:21:53;;;;;;;40.42;24.63;;;17.30;86.70;;;17.75;49.61;98825.81;5051059;28;20038;-77
2022/11/09 02:24:20;;;;;;;39.47;24.25;;;17.30;86.60;;;17.66;50.02;98817.56;5039896;28;20059;-76
2022/11/09 02:26:50;;;;;;;39.92;24.85;;;17.20;86.70;;;17.71;49.71;98822.09;5047888;28;20044;-77
2022/11/09 02:29:23;;;;;;;48.42;25.25;;;17.10;87.00;;;17.70;49.79;98820.47;5053163;28;20045;-77
2022/11/09 02:31:54;;;;;;;35.38;24.00;;;17.10;87.00;;;17.83;49.53;98821.50;5019123;28;20036;-77
2022/11/09 02:34:20;;;;;;;38.03;24.85;;;17.10;87.00;;;17.86;49.68;98821.66;5040853;28;20036;-77
2022/11/09 02:36:46;;;;;;;35.97;23.15;;;17.20;87.20;;;17.91;49.73;98820.69;5022880;28;20055;-77
2022/11/09 02:39:15;;;;;;;38.72;24.25;;;17.20;87.20;;;17.82;49.80;98815.19;5027023;28;20078;-77
2022/11/09 02:42:09;;;;;;;33.60;24.38;;;17.10;87.00;;;17.83;49.63;98805.81;5051378;28;20373;-77
2022/11/09 02:44:42;;;;;;;35.67;24.40;;;17.10;87.10;;;17.84;49.51;98806.66;5033090;28;20480;-77
2022/11/09 02:47:08;;;;;;;37.20;24.45;;;17.10;87.80;;;17.88;49.69;98802.94;5036621;28;20040;-77
2022/11/09 02:49:34;;;;;;;43.30;24.58;;;17.10;87.40;;;17.93;49.74;98815.69;5036575;28;20049;-77
2022/11/09 02:52:00;;;;;;;37.92;24.23;;;17.00;87.50;;;18.04;49.43;98802.44;5035358;28;20049;-77
2022/11/09 02:54:27;;;;;;;38.72;24.58;;;17.10;87.40;;;17.96;49.57;98793.06;5019590;28;20040;-77
2022/11/09 02:56:53;;;;;;;40.03;24.48;;;17.10;87.20;;;17.97;49.48;98798.25;5032843;28;20048;-77
2022/11/09 02:59:19;;;;;;;37.63;24.48;;;17.10;87.00;;;17.97;49.54;98801.00;5033414;28;20088;-77
2022/11/09 03:01:45;;;;;;;38.33;25.77;;;17.10;87.30;;;17.98;49.50;98805.34;5019388;28;20033;-76
2022/11/09 03:04:11;;;;;;;43.08;24.27;;;17.10;87.40;;;18.08;49.41;98806.97;5019377;28;20060;-76
2022/11/09 03:06:38;;;;;;;36.72;23.13;;;17.00;87.50;;;18.09;49.33;98794.88;5064542;28;20466;-76
2022/11/09 03:09:06;;;;;;;36.25;22.67;;;17.10;87.70;;;18.10;49.31;98793.75;5037653;28;20037;-77
2022/11/09 03:11:32;;;;;;;35.47;23.45;;;17.10;87.70;;;18.09;49.33;98797.63;5050903;28;20044;-76
2022/11/09 03:13:58;;;;;;;36.25;23.98;;;17.10;87.60;;;18.11;49.18;98798.09;5070452;28;20045;-76
2022/11/09 03:16:24;;;;;;;36.33;23.17;;;17.10;87.40;;;18.17;49.12;98799.56;5043223;28;20043;-77
2022/11/09 03:18:51;;;;;;;33.47;23.17;;;17.10;87.00;;;18.20;48.93;98798.09;5050932;28;20482;-77
2022/11/09 03:21:17;;;;;;;33.47;22.63;;;17.10;87.00;;;18.14;49.23;98796.63;5021555;28;20048;-76
2022/11/09 03:23:44;;;;;;;30.45;22.02;;;17.20;87.30;;;18.15;49.18;98810.03;5024947;28;20062;-77
2022/11/09 03:26:10;;;;;;;33.08;22.27;;;17.10;87.70;;;18.22;49.26;98812.31;5033958;28;20049;-77
2022/11/09 03:28:36;;;;;;;37.47;23.50;;;17.20;87.50;;;18.22;49.08;98817.81;5065451;28;20037;-77
2022/11/09 03:31:02;;;;;;;34.90;20.85;;;17.20;87.30;;;18.32;48.68;98817.47;5059121;28;20036;-76
2022/11/09 03:33:28;;;;;;;28.25;21.45;;;17.20;87.20;;;18.33;48.62;98813.59;5064771;28;20090;-77
2022/11/09 03:35:54;;;;;;;34.95;22.58;;;17.30;87.30;;;18.31;49.08;98820.53;5021303;28;20064;-77
2022/11/09 03:38:20;;;;;;;32.40;21.13;;;17.30;87.30;;;18.34;48.85;98825.38;5033786;28;20044;-77
2022/11/09 03:40:46;;;;;;;32.67;21.70;;;17.30;87.30;;;18.32;48.97;98831.22;5024015;28;20033;-77
2022/11/09 03:43:12;;;;;;;35.45;21.15;;;17.30;87.30;;;18.40;48.68;98824.91;5049976;28;20037;-77
2022/11/09 03:45:38;;;;;;;40.85;22.85;;;17.30;87.30;;;18.36;48.80;98820.38;5020653;28;20090;-77
2022/11/09 03:48:05;;;;;;;35.95;22.95;;;17.30;87.30;;;18.38;48.74;98829.91;5049277;28;20040;-77
2022/11/09 03:50:32;;;;;;;33.17;21.73;;;17.30;87.30;;;18.36;48.88;98823.13;5010839;28;20663;-77
2022/11/09 03:52:59;;;;;;;33.55;21.50;;;17.30;87.30;;;18.41;48.73;98825.69;5047578;28;20041;-76
2022/11/09 03:55:26;;;;;;;27.75;19.98;;;17.30;87.30;;;18.44;48.62;98820.38;5020016;28;20037;-77
2022/11/09 03:57:52;;;;;;;32.17;21.98;;;17.40;87.20;;;18.48;48.40;98820.53;5051184;28;20040;-77
2022/11/09 04:00:20;;;;;;;34.33;21.75;;;17.40;87.00;;;18.48;48.12;98814.22;5034151;28;20116;-77
2022/11/09 04:02:46;;;;;;;32.88;21.33;;;17.40;86.70;;;18.38;48.32;98810.66;5029997;28;20999;-77
2022/11/09 04:05:12;;;;;;;29.00;19.80;;;17.40;86.80;;;18.55;48.24;98814.53;5050949;28;20154;-76
2022/11/09 04:07:39;;;;;;;31.27;20.52;;;17.40;86.90;;;18.55;48.34;98812.59;5006221;28;20047;-76
2022/11/09 04:10:06;;;;;;;31.65;19.92;;;17.40;87.00;;;18.57;48.18;98810.34;5036275;28;20102;-76
2022/11/09 04:12:32;;;;;;;27.58;20.05;;;17.40;86.80;;;18.54;48.01;98802.72;5065833;28;20050;-76
2022/11/09 04:14:58;;;;;;;35.13;21.85;;;17.50;86.60;;;18.61;47.77;98804.97;5052912;28;20032;-76
2022/11/09 04:17:24;;;;;;;32.13;22.00;;;17.50;86.30;;;18.57;47.92;98801.25;5020446;28;20384;-76
2022/11/09 04:19:50;;;;;;;26.05;19.80;;;17.50;86.50;;;18.60;47.94;98806.13;5015689;28;20476;-76
2022/11/09 04:22:17;;;;;;;32.83;21.58;;;17.50;86.60;;;18.62;48.18;98798.34;5051572;28;20110;-76
2022/11/09 04:24:43;;;;;;;30.98;21.33;;;17.50;86.60;;;18.53;48.31;98792.06;5004277;28;20091;-76
2022/11/09 04:27:12;;;;;;;28.83;20.42;;;17.50;86.80;;;18.62;47.78;98790.09;5019442;28;20114;-76
2022/11/09 04:29:39;;;;;;;29.15;19.85;;;17.50;86.80;;;18.63;47.94;98794.47;4996355;28;20053;-76
2022/11/09 04:32:05;;;;;;;32.67;21.75;;;17.50;86.50;;;18.65;47.58;98794.97;5028859;28;20180;-76
2022/11/09 04:34:36;;;;;;;27.80;20.45;;;17.50;86.30;;;18.66;47.60;98794.63;5027105;28;20066;-76
2022/11/09 04:37:02;;;;;;;31.98;22.45;;;17.50;86.10;;;18.66;47.83;98782.84;4997884;28;20041;-76
2022/11/09 04:39:29;;;;;;;33.25;19.98;;;17.60;86.30;;;18.63;48.03;98792.53;5032890;28;20762;-76
2022/11/09 04:41:55;;;;;;;33.50;20.58;;;17.60;86.60;;;18.60;47.73;98773.16;5016965;28;20057;-76
2022/11/09 04:44:21;;;;;;;33.92;21.25;;;17.50;86.50;;;18.75;47.48;98780.03;5031074;28;20543;-76
2022/11/09 04:46:47;;;;;;;31.08;20.55;;;17.50;86.30;;;18.77;47.40;98786.84;5017960;28;20047;-76
2022/11/09 04:49:13;;;;;;;27.63;20.05;;;17.60;86.10;;;18.72;47.40;98787.00;5008329;28;20041;-76
2022/11/09 04:51:40;;;;;;;33.13;21.33;;;17.60;85.90;;;18.76;47.48;98784.47;5048861;28;20468;-76
2022/11/09 04:54:06;;;;;;;31.02;20.90;;;17.70;86.00;;;18.75;47.59;98786.41;5038017;28;20041;-76
2022/11/09 04:56:32;;;;;;;29.80;20.98;;;17.70;86.10;;;18.74;47.57;98794.94;5042257;28;20114;-76
2022/11/09 04:58:58;;;;;;;31.73;21.08;;;17.60;86.20;;;18.71;47.41;98782.66;5037517;28;20395;-76
2022/11/09 05:01:24;;;;;;;34.47;21.60;;;17.60;86.20;;;18.66;47.47;98780.09;5038613;28;20060;-76
2022/11/09 05:03:50;;;;;;;31.15;21.50;;;17.60;86.00;;;18.73;47.02;98787.84;5022711;28;20040;-76
2022/11/09 05:06:32;;;;;;;34.38;20.30;;;17.70;85.90;;;18.69;47.15;98787.66;5048716;28;20090;-76
2022/11/09 05:09:03;;;;;;;30.95;20.35;;;17.70;85.60;;;18.65;47.39;98792.22;5012396;28;20041;-76
2022/11/09 05:11:29;;;;;;;31.77;21.08;;;17.70;85.60;;;18.76;47.61;98784.47;5016716;28;20844;-76
2022/11/09 05:13:56;;;;;;;32.15;19.83;;;17.70;86.00;;;18.68;47.43;98788.81;5032713;28;20037;-76
2022/11/09 05:16:22;;;;;;;31.70;20.58;;;17.60;85.90;;;18.64;47.46;98791.38;5033240;28;20032;-77
2022/11/09 05:18:48;;;;;;;32.67;21.65;;;17.60;85.80;;;18.71;47.22;98790.09;5034771;28;20119;-77
2022/11/09 05:21:15;;;;;;;33.00;19.83;;;17.60;85.70;;;18.76;46.94;98788.00;5026532;28;20048;-76
2022/11/09 05:23:59;;;;;;;30.05;18.58;;;17.70;85.70;;;18.73;47.19;98799.63;5043469;28;20111;-76
2022/11/09 05:26:36;;;;;;;30.90;20.55;;;17.60;85.50;;;18.57;47.47;98793.03;5052745;28;20033;-77
2022/11/09 05:29:07;;;;;;;28.17;20.58;;;17.60;85.90;;;18.68;47.54;98799.81;5039013;28;20105;-77
2022/11/09 05:31:34;;;;;;;33.97;19.15;;;17.60;85.90;;;18.75;47.27;98789.16;5051479;28;20037;-76
2022/11/09 05:34:00;;;;;;;30.13;20.25;;;17.70;85.80;;;18.73;47.07;98794.13;5043742;28;20045;-77
2022/11/09 05:36:27;;;;;;;28.33;19.38;;;17.60;85.60;;;18.77;47.00;98797.03;5023101;28;20048;-76
2022/11/09 05:38:53;;;;;;;29.83;18.63;;;17.70;85.20;;;18.76;46.81;98796.25;5050640;28;20084;-76
2022/11/09 05:41:19;;;;;;;32.83;20.33;;;17.80;85.20;;;18.76;47.21;98806.44;5038837;28;20040;-77
2022/11/09 05:43:45;;;;;;;29.67;19.92;;;17.70;85.40;;;18.80;47.09;98802.72;5040089;28;20037;-77
2022/11/09 05:46:13;;;;;;;35.80;20.52;;;17.70;85.60;;;18.65;47.34;98804.00;5036414;28;20078;-76
2022/11/09 05:48:40;;;;;;;30.73;20.83;;;17.70;85.60;;;18.71;46.97;98801.09;5037280;28;20492;-79
2022/11/09 05:51:08;;;;;;;31.10;19.27;;;17.60;85.60;;;18.81;46.91;98800.75;5014165;28;20114;-79
2022/11/09 05:53:34;;;;;;;30.42;20.25;;;17.70;85.60;;;18.81;46.89;98807.06;5033126;28;20041;-79
2022/11/09 05:56:08;;;;;;;25.80;17.85;;;17.70;85.30;;;18.82;46.81;98811.41;5037140;28;20089;-78
2022/11/09 05:58:37;;;;;;;29.83;19.73;;;17.70;85.20;;;18.79;46.75;98812.06;5042709;28;20380;-78
2022/11/09 06:01:05;;;;;;;29.50;18.90;;;17.70;85.10;;;18.78;46.42;98815.97;5036229;28;20047;-78
2022/11/09 06:03:31;;;;;;;31.27;18.70;;;17.80;84.80;;;18.77;46.96;98816.28;5025524;28;20099;-77
2022/11/09 06:06:02;;;;;;;28.98;20.00;;;17.70;85.00;;;18.82;46.84;98800.41;5010151;28;20045;-77
2022/11/09 06:08:28;;;;;;;31.55;19.08;;;17.80;85.20;;;18.82;46.83;98805.91;5039160;28;20048;-77
2022/11/09 06:11:04;;;;;;;30.33;19.58;;;17.80;85.40;;;18.72;47.15;98808.97;5056650;28;20044;-77
2022/11/09 06:13:30;;;;;;;31.70;19.98;;;17.80;85.30;;;18.65;47.15;98800.47;5024573;28;20136;-79
2022/11/09 06:15:58;;;;;;;32.60;20.10;;;17.70;85.20;;;18.75;46.97;98797.41;5026396;28;20044;-80
2022/11/09 06:18:26;;;;;;;27.35;19.17;;;17.70;85.30;;;18.82;46.80;98805.91;5021272;28;20048;-80
2022/11/09 06:20:56;;;;;;;28.77;19.83;;;17.70;85.30;;;18.82;46.91;98805.91;5020572;28;20040;-81
2022/11/09 06:23:25;;;;;;;30.33;18.52;;;17.70;85.30;;;18.85;46.99;98808.03;5021392;28;20041;-81
2022/11/09 06:26:08;;;;;;;26.17;18.88;;;17.80;85.50;;;18.81;47.08;98809.00;5035405;28;20049;-81
2022/11/09 06:28:35;;;;;;;28.88;19.38;;;17.80;85.40;;;18.81;46.76;98818.06;5038414;28;20551;-81
2022/11/09 06:31:05;;;;;;;28.60;18.17;;;17.80;85.30;;;18.85;46.71;98821.78;5037269;28;20045;-81
2022/11/09 06:33:31;;;;;;;27.98;18.30;;;17.80;85.00;;;18.82;46.81;98816.91;5048203;28;20119;-81
2022/11/09 06:35:58;;;;;;;29.70;18.55;;;17.80;85.20;;;18.87;46.84;98819.47;5050367;28;20041;-81
2022/11/09 06:38:27;;;;;;;25.00;17.13;;;17.80;85.40;;;18.91;47.00;98821.59;5021636;28;20269;-81
2022/11/09 06:40:55;;;;;;;27.25;18.52;;;17.80;85.20;;;18.82;47.03;98824.34;5017896;28;20036;-81
2022/11/09 06:43:21;;;;;;;28.27;18.52;;;17.80;85.30;;;18.82;47.00;98825.16;5031975;28;20515;-81
2022/11/09 06:45:48;;;;;;;28.08;18.15;;;17.80;85.20;;;18.89;46.87;98818.38;5006780;28;20066;-81
2022/11/09 06:48:13;;;;;;;29.02;18.40;;;17.90;85.10;;;18.90;46.61;98817.22;5033560;28;20506;-81
2022/11/09 06:50:40;;;;;;;28.35;19.17;;;17.90;85.00;;;18.91;46.37;98816.91;5045411;28;20044;-81
2022/11/09 06:53:09;;;;;;;28.10;18.98;;;17.90;84.80;;;18.92;46.70;98823.19;5019973;28;20521;-81
2022/11/09 06:55:36;;;;;;;28.25;18.25;;;17.90;85.10;;;18.87;46.99;98816.72;5030474;28;20051;-82
2022/11/09 06:58:15;;;;;;;30.55;18.88;;;17.90;85.10;;;18.93;46.84;98814.63;5020218;28;20066;-82
2022/11/09 07:00:42;;;;;;;30.35;20.13;;;17.90;85.10;;;18.92;46.70;98823.19;5035770;28;20044;-82
2022/11/09 07:03:13;;;;;;;28.70;19.98;;;17.90;85.10;;;18.89;46.72;98819.16;5031304;28;20040;-82
2022/11/09 07:05:39;;;;;;;26.50;17.38;;;17.90;85.00;;;18.91;46.37;98816.09;5033491;28;20046;-82
2022/11/09 07:08:05;;;;;;;24.95;17.40;;;17.80;84.70;;;18.94;46.75;98815.44;5039420;28;20400;-82
2022/11/09 07:10:31;;;;;;;27.88;19.38;;;17.80;84.90;;;18.96;46.53;98813.16;5047088;28;20056;-82
2022/11/09 07:12:57;;;;;;;25.67;17.95;;;17.90;85.00;;;18.96;46.53;98810.41;5050453;28;20040;-82
2022/11/09 07:15:24;;;;;;;26.92;18.63;;;18.00;84.90;;;19.00;46.36;98808.59;5017592;28;20062;-82
2022/11/09 07:17:50;;;;;;;27.92;17.75;;;18.00;84.60;;;18.99;46.47;98818.00;5032476;28;20052;-82
2022/11/09 07:20:16;;;;;;;28.08;18.35;;;18.00;84.50;;;18.91;46.50;98822.41;5031275;28;20049;-82
2022/11/09 07:22:42;;;;;;;27.55;17.33;;;18.00;84.40;;;18.99;46.56;98821.56;5017638;28;20083;-82
2022/11/09 07:25:10;;;;;;;25.65;15.50;;;18.00;84.30;;;19.03;46.40;98818.94;5031768;28;20048;-82
2022/11/09 07:27:36;;;;;;;27.77;18.08;;;18.10;84.50;;;19.04;46.22;98809.56;5031142;28;20512;-82
2022/11/09 07:30:03;;;;;;;23.67;16.48;;;18.10;84.60;;;19.03;46.17;98816.19;5034124;28;20509;-82
2022/11/09 07:32:32;;;;;;;26.15;17.50;;;18.10;84.40;;;19.05;46.41;98819.41;5052733;28;20033;-82
2022/11/09 07:34:59;;;;;;;30.52;18.77;;;18.10;84.40;;;19.05;46.26;98811.97;5019468;28;20076;-82
2022/11/09 07:37:25;;;;;;;25.17;17.15;;;18.10;84.30;;;19.06;46.31;98810.06;5014165;28;20052;-82
2022/11/09 07:39:51;;;;;;;27.65;19.17;;;18.10;84.30;;;19.04;46.28;98809.56;5028990;28;20041;-82
2022/11/09 07:42:17;;;;;;;30.73;18.38;;;18.10;84.30;;;19.09;46.30;98807.44;5023839;28;20040;-82
2022/11/09 07:44:43;;;;;;;25.10;18.35;;;18.20;84.40;;;19.12;46.10;98803.22;5017636;28;20055;-82
2022/11/09 07:47:10;;;;;;;30.52;18.73;;;18.20;84.40;;;19.08;46.30;98807.75;5051197;28;20609;-82
2022/11/09 07:49:37;;;;;;;26.02;17.15;;;18.20;84.40;;;19.12;46.31;98802.44;5013096;28;20094;-82
2022/11/09 07:52:03;;;;;;;27.95;18.52;;;18.20;84.10;;;19.12;46.23;98794.19;5027794;28;20056;-82
2022/11/09 07:54:29;;;;;;;27.08;18.80;;;18.20;84.20;;;19.14;46.02;98791.91;5064150;28;20094;-82
2022/11/09 07:56:55;;;;;;;25.67;17.73;;;18.20;84.10;;;19.13;46.31;98799.31;5034004;28;20036;-82
2022/11/09 07:59:21;;;;;;;27.35;17.83;;;18.20;84.10;;;19.09;46.31;98804.69;5048958;28;20593;-82
2022/11/09 08:01:47;;;;;;;26.13;17.48;;;18.20;84.10;;;19.14;46.19;98792.72;5027763;28;20044;-82
2022/11/09 08:04:13;;;;;;;29.02;18.65;;;18.30;85.00;;;19.13;46.29;98796.56;5017706;28;20045;-82
2022/11/09 08:06:39;;;;;;;24.75;17.23;;;18.30;84.10;;;19.12;46.18;98786.72;5034602;28;20355;-83
2022/11/09 08:09:06;;;;;;;24.35;17.45;;;18.30;83.90;;;19.13;46.10;98793.03;5032981;28;20394;-83
2022/11/09 08:11:32;;;;;;;24.88;17.25;;;18.30;83.90;;;19.16;45.99;98793.19;5033800;28;20040;-82
2022/11/09 08:13:59;;;;;;;28.13;16.30;;;18.30;83.90;;;19.16;46.13;98790.44;5044814;28;20480;-83
2022/11/09 08:16:25;;;;;;;27.75;16.95;;;18.30;84.00;;;19.18;46.21;98788.16;5045918;28;20044;-82
2022/11/09 08:19:16;;;;;;;27.30;15.93;;;18.40;84.00;;;19.17;46.21;98778.28;5025036;28;20046;-83
2022/11/09 08:21:42;;;;;;;28.63;17.38;;;18.40;84.10;;;19.20;46.01;98790.56;5019539;28;20064;-83
2022/11/09 08:24:08;;;;;;;24.88;16.00;;;18.30;84.00;;;19.18;46.22;98781.84;5019762;28;20045;-82
2022/11/09 08:26:34;;;;;;;26.52;16.75;;;18.40;83.90;;;19.20;45.92;98780.38;5016566;28;20557;-83
2022/11/09 08:29:01;;;;;;;24.70;16.65;;;18.40;83.90;;;19.22;46.11;98789.09;5026854;28;20033;-83
2022/11/09 08:31:27;;;;;;;24.67;15.57;;;18.40;83.90;;;19.26;46.17;98784.56;5017175;28;20127;-82
2022/11/09 08:33:54;;;;;;;20.95;14.82;;;18.40;83.90;;;19.26;46.27;98776.31;5029755;28;20124;-83
2022/11/09 08:36:21;;;;;;;23.27;16.95;;;18.50;83.90;;;19.24;46.13;98775.84;5012326;28;20045;-82
2022/11/09 08:38:47;;;;;;;24.98;15.60;;;18.50;84.00;;;19.29;46.07;98775.66;5046630;28;20478;-83
2022/11/09 08:41:13;;;;;;;24.42;15.30;;;18.50;83.80;;;19.30;46.06;98774.50;5006409;28;20049;-83
2022/11/09 08:43:39;;;;;;;22.30;16.58;;;18.50;83.70;;;19.32;45.88;98776.13;5014273;28;20415;-83
2022/11/09 08:46:06;;;;;;;23.42;14.98;;;18.50;83.60;;;19.33;46.10;98772.22;5000679;28;20049;-83
2022/11/09 08:48:31;;;;;;;20.80;15.50;;;18.60;83.70;;;19.29;45.99;98761.91;5035012;28;20051;-83
2022/11/09 08:50:58;;;;;;;22.73;16.33;;;18.60;83.90;;;19.35;46.20;98765.25;5041813;28;20070;-84
2022/11/09 08:53:26;;;;;;;19.83;14.52;;;18.60;83.80;;;19.34;46.15;98760.91;5019770;28;20048;-83
2022/11/09 08:55:52;;;;;;;22.52;16.30;;;18.60;84.10;;;19.36;46.04;98769.63;5020608;28;20048;-83
2022/11/09 08:58:18;;;;;;;25.42;14.98;;;18.60;83.80;;;19.40;45.58;98761.50;5025697;28;20048;-84
2022/11/09 09:00:45;;;;;;;24.27;14.85;;;18.60;83.80;;;19.40;45.94;98767.81;5050022;28;20055;-84
2022/11/09 09:03:11;;;;;;;21.30;13.57;;;18.70;83.70;;;19.44;45.85;98768.78;5037748;28;20045;-84
2022/11/09 09:05:37;;;;;;;24.30;15.07;;;18.70;83.70;;;19.45;46.04;98772.31;5022610;28;20049;-84
2022/11/09 09:08:04;;;;;;;22.83;14.25;;;18.70;83.70;;;19.46;45.89;98774.75;5034612;28;20507;-83
2022/11/09 09:10:34;;;;;;;18.15;13.25;;;18.70;83.70;;;19.44;45.82;98767.97;5035543;28;20036;-83
2022/11/09 09:13:02;;;;;;;18.85;14.25;;;18.70;83.50;;;19.47;46.10;98772.81;5002341;28;20041;-83
2022/11/09 09:15:28;;;;;;;20.65;15.05;;;18.70;83.60;;;19.50;46.02;98777.63;5036227;28;20484;-83
2022/11/09 09:17:54;;;;;;;21.23;13.98;;;18.80;83.50;;;19.53;45.91;98776.97;5018805;28;20124;-83
2022/11/09 09:20:20;;;;;;;19.63;12.95;;;18.80;83.50;;;19.51;46.09;98769.06;5031875;28;20405;-83
2022/11/09 09:22:46;;;;;;;23.63;15.50;;;18.90;83.50;;;19.52;46.20;98769.84;5010211;28;20051;-83
2022/11/09 09:25:16;;;;;;;17.90;13.73;;;18.80;83.60;;;19.56;45.91;98768.03;5021058;28;20049;-83
2022/11/09 09:27:43;;;;;;;22.90;15.32;;;18.80;83.70;;;19.61;45.93;98769.78;5052675;28;20526;-83
2022/11/09 09:30:10;;;;;;;18.88;13.60;;;18.80;83.60;;;19.61;45.85;98762.34;5026720;28;20045;-83
2022/11/09 09:32:36;;;;;;;28.50;15.77;;;18.80;83.60;;;19.65;45.84;98762.50;5040325;28;20040;-83
2022/11/09 09:35:02;;;;;;;19.55;13.15;;;18.80;83.60;;;19.65;45.69;98766.03;5034646;28;20055;-83
2022/11/09 09:37:28;;;;;;;22.85;14.38;;;18.90;83.70;;;19.69;45.81;98758.78;5036568;28;20037;-83
2022/11/09 09:39:55;;;;;;;18.10;14.00;;;18.90;83.70;;;19.67;46.01;98765.75;5023429;28;20052;-83
2022/11/09 09:42:29;;;;;;;19.63;13.82;;;18.90;83.70;;;19.69;45.71;98763.44;5047583;28;20123;-83
2022/11/09 09:45:34;;;;;;;21.75;14.63;;;18.90;83.70;;;19.67;45.92;98763.78;5022212;28;20041;-83
2022/11/09 09:48:12;;;;;;;21.08;14.10;;;18.90;83.80;;;19.68;45.75;98765.41;5041722;28;20388;-83
2022/11/09 09:50:47;;;;;;;19.60;13.15;;;18.80;83.90;;;19.71;45.90;98764.72;5035839;28;20041;-83
2022/11/09 09:53:35;;;;;;;18.20;13.07;;;19.00;83.90;;;19.76;45.77;98760.97;5035703;28;20226;-83
2022/11/09 09:56:12;;;;;;;22.42;13.32;;;19.00;83.80;;;19.75;45.83;98761.31;5029495;28;20098;-83
2022/11/09 09:58:45;;;;;;;19.67;12.48;;;19.00;83.60;;;19.75;45.87;98753.06;5061228;28;20127;-83
2022/11/09 10:01:16;;;;;;;18.73;13.55;;;19.00;83.70;;;19.77;45.37;98759.00;5038511;28;20557;-83
2022/11/09 10:03:42;;;;;;;22.58;12.73;;;19.00;83.70;;;19.75;45.83;98762.13;5037086;28;20040;-83
2022/11/09 10:06:27;;;;;;;17.00;12.60;;;19.00;83.60;;;19.79;45.87;98753.97;5010233;28;20053;-83
2022/11/09 10:09:22;;;;;;;20.65;13.10;;;19.10;83.50;;;19.81;45.70;98754.47;5049239;28;20070;-83